Hlavní strana
METAR-TAF:

METAR-TAF

Letiště :

Reschenský průsmyk, Itálie

zeměpisná šířka: 46-50N, zeměpisná délka: 010-30E, výška: 1800 m

Aktuální stav počasí

Zpráva byla vytvořena před 1 hodinou a 8 minutami, v 14:55 UTC
Severní vítr 7 kt
Teplota 6°C
Vlhkost vzduchu 16%
Tlak 1027 hPa
Viditelnost 10 km a více
Žádná oblačnost pod 1500 m, nevyskytují se cumulonimby.

METAR: LIVE 201455Z 01007KT CAVOK 06/M18 Q1027 RMK SKC VIS MIN 9999

Čas: 17:03 (16:03 UTC)


TAF: chybějící

Stav a předpovědi počasí z více než 4 000 letišť (zprávy METAR a TAF).

Červené a žluté tečky na mapě představují dostupné meteorologické stanice.

Když kurzor umístíte na tečku, zobrazí se název stanice.

Pak kliknutím zobrazíte stav a předpověď počasí.

Chcete-li změnit mapu, kliknutím na zelené tlačítko se znaménkem +mapu přiblížíte, kliknutím na zelené tlačítko se znaménkem – mapu oddálíte a kliknutím na zelené šipky přejdete na sousední mapy.


METAR-TAF: